sensor_id;sensor_type;location;lat;lon;timestamp;P1;durP1;ratioP1;P2;durP2;ratioP2
15181;SDS011;7692;50.602;8.692;2024-03-02T00:01:04;2.20;;;2.20;;
15181;SDS011;7692;50.602;8.692;2024-03-02T00:03:33;2.20;;;2.20;;
15181;SDS011;7692;50.602;8.692;2024-03-02T00:06:02;2.30;;;2.30;;
15181;SDS011;7692;50.602;8.692;2024-03-02T00:08:30;2.40;;;2.40;;
15181;SDS011;7692;50.602;8.692;2024-03-02T00:11:01;2.20;;;2.20;;
15181;SDS011;7692;50.602;8.692;2024-03-02T00:13:30;2.20;;;2.20;;
15181;SDS011;7692;50.602;8.692;2024-03-02T00:15:58;2.20;;;2.20;;
15181;SDS011;7692;50.602;8.692;2024-03-02T00:18:27;2.20;;;2.20;;
15181;SDS011;7692;50.602;8.692;2024-03-02T00:20:58;2.20;;;2.20;;
15181;SDS011;7692;50.602;8.692;2024-03-02T00:23:27;2.20;;;2.20;;
15181;SDS011;7692;50.602;8.692;2024-03-02T00:25:57;2.37;;;2.37;;
15181;SDS011;7692;50.602;8.692;2024-03-02T00:28:29;2.20;;;2.20;;
15181;SDS011;7692;50.602;8.692;2024-03-02T00:31:01;2.27;;;2.27;;
15181;SDS011;7692;50.602;8.692;2024-03-02T00:33:31;2.30;;;2.30;;
15181;SDS011;7692;50.602;8.692;2024-03-02T00:36:01;2.30;;;2.30;;
15181;SDS011;7692;50.602;8.692;2024-03-02T00:38:30;2.30;;;2.30;;
15181;SDS011;7692;50.602;8.692;2024-03-02T00:40:59;2.30;;;2.30;;
15181;SDS011;7692;50.602;8.692;2024-03-02T00:43:38;2.20;;;2.20;;
15181;SDS011;7692;50.602;8.692;2024-03-02T00:46:15;2.30;;;2.30;;
15181;SDS011;7692;50.602;8.692;2024-03-02T00:48:48;2.30;;;2.30;;
15181;SDS011;7692;50.602;8.692;2024-03-02T00:51:21;2.20;;;2.20;;
15181;SDS011;7692;50.602;8.692;2024-03-02T00:53:50;2.17;;;2.17;;
15181;SDS011;7692;50.602;8.692;2024-03-02T00:56:19;2.20;;;2.20;;
15181;SDS011;7692;50.602;8.692;2024-03-02T00:58:48;2.20;;;2.20;;
15181;SDS011;7692;50.602;8.692;2024-03-02T01:01:16;2.30;;;2.30;;
15181;SDS011;7692;50.602;8.692;2024-03-02T01:03:46;2.20;;;2.20;;
15181;SDS011;7692;50.602;8.692;2024-03-02T01:06:15;2.20;;;2.20;;
15181;SDS011;7692;50.602;8.692;2024-03-02T01:08:43;2.30;;;2.30;;
15181;SDS011;7692;50.602;8.692;2024-03-02T01:11:12;2.50;;;2.50;;
15181;SDS011;7692;50.602;8.692;2024-03-02T01:13:40;2.30;;;2.30;;
15181;SDS011;7692;50.602;8.692;2024-03-02T01:16:09;2.30;;;2.30;;
15181;SDS011;7692;50.602;8.692;2024-03-02T01:18:41;2.40;;;2.40;;
15181;SDS011;7692;50.602;8.692;2024-03-02T01:21:10;2.40;;;2.40;;
15181;SDS011;7692;50.602;8.692;2024-03-02T01:23:38;2.70;;;2.70;;
15181;SDS011;7692;50.602;8.692;2024-03-02T01:26:06;2.30;;;2.30;;
15181;SDS011;7692;50.602;8.692;2024-03-02T01:28:34;2.30;;;2.30;;
15181;SDS011;7692;50.602;8.692;2024-03-02T01:31:02;2.43;;;2.43;;
15181;SDS011;7692;50.602;8.692;2024-03-02T01:33:32;2.40;;;2.40;;
15181;SDS011;7692;50.602;8.692;2024-03-02T01:36:00;2.30;;;2.30;;
15181;SDS011;7692;50.602;8.692;2024-03-02T01:38:28;2.30;;;2.30;;
15181;SDS011;7692;50.602;8.692;2024-03-02T01:40:56;2.30;;;2.30;;
15181;SDS011;7692;50.602;8.692;2024-03-02T01:43:24;2.20;;;2.20;;
15181;SDS011;7692;50.602;8.692;2024-03-02T01:45:52;2.30;;;2.30;;
15181;SDS011;7692;50.602;8.692;2024-03-02T01:48:20;2.30;;;2.30;;
15181;SDS011;7692;50.602;8.692;2024-03-02T01:50:50;2.30;;;2.30;;
15181;SDS011;7692;50.602;8.692;2024-03-02T01:53:18;2.50;;;2.50;;
15181;SDS011;7692;50.602;8.692;2024-03-02T01:55:46;2.33;;;2.33;;
15181;SDS011;7692;50.602;8.692;2024-03-02T01:58:14;2.40;;;2.40;;
15181;SDS011;7692;50.602;8.692;2024-03-02T02:00:42;2.30;;;2.30;;
15181;SDS011;7692;50.602;8.692;2024-03-02T02:03:11;2.20;;;2.20;;
15181;SDS011;7692;50.602;8.692;2024-03-02T02:05:39;2.40;;;2.40;;
15181;SDS011;7692;50.602;8.692;2024-03-02T02:08:11;2.40;;;2.40;;
15181;SDS011;7692;50.602;8.692;2024-03-02T02:10:38;2.50;;;2.50;;
15181;SDS011;7692;50.602;8.692;2024-03-02T02:13:06;2.30;;;2.30;;
15181;SDS011;7692;50.602;8.692;2024-03-02T02:15:35;2.20;;;2.20;;
15181;SDS011;7692;50.602;8.692;2024-03-02T02:18:03;2.30;;;2.30;;
15181;SDS011;7692;50.602;8.692;2024-03-02T02:20:31;2.30;;;2.30;;
15181;SDS011;7692;50.602;8.692;2024-03-02T02:23:01;2.37;;;2.37;;
15181;SDS011;7692;50.602;8.692;2024-03-02T02:25:31;2.20;;;2.20;;
15181;SDS011;7692;50.602;8.692;2024-03-02T02:28:00;2.40;;;2.40;;
15181;SDS011;7692;50.602;8.692;2024-03-02T02:30:29;2.40;;;2.40;;
15181;SDS011;7692;50.602;8.692;2024-03-02T02:32:58;2.33;;;2.33;;
15181;SDS011;7692;50.602;8.692;2024-03-02T02:35:26;2.30;;;2.30;;
15181;SDS011;7692;50.602;8.692;2024-03-02T02:37:55;2.30;;;2.30;;
15181;SDS011;7692;50.602;8.692;2024-03-02T02:40:26;2.20;;;2.20;;
15181;SDS011;7692;50.602;8.692;2024-03-02T02:42:56;2.30;;;2.30;;
15181;SDS011;7692;50.602;8.692;2024-03-02T02:45:25;2.33;;;2.33;;
15181;SDS011;7692;50.602;8.692;2024-03-02T02:47:53;2.30;;;2.30;;
15181;SDS011;7692;50.602;8.692;2024-03-02T02:50:21;2.40;;;2.40;;
15181;SDS011;7692;50.602;8.692;2024-03-02T02:52:49;2.40;;;2.40;;
15181;SDS011;7692;50.602;8.692;2024-03-02T02:55:17;2.30;;;2.30;;
15181;SDS011;7692;50.602;8.692;2024-03-02T02:57:46;2.40;;;2.40;;
15181;SDS011;7692;50.602;8.692;2024-03-02T03:00:15;2.40;;;2.40;;
15181;SDS011;7692;50.602;8.692;2024-03-02T03:02:46;2.30;;;2.30;;
15181;SDS011;7692;50.602;8.692;2024-03-02T03:05:17;2.30;;;2.30;;
15181;SDS011;7692;50.602;8.692;2024-03-02T03:07:45;2.20;;;2.20;;
15181;SDS011;7692;50.602;8.692;2024-03-02T03:10:16;2.30;;;2.30;;
15181;SDS011;7692;50.602;8.692;2024-03-02T03:12:44;2.40;;;2.40;;
15181;SDS011;7692;50.602;8.692;2024-03-02T03:15:14;2.33;;;2.33;;
15181;SDS011;7692;50.602;8.692;2024-03-02T03:17:43;2.40;;;2.40;;
15181;SDS011;7692;50.602;8.692;2024-03-02T03:20:14;2.30;;;2.30;;
15181;SDS011;7692;50.602;8.692;2024-03-02T03:22:42;2.30;;;2.30;;
15181;SDS011;7692;50.602;8.692;2024-03-02T03:25:10;2.30;;;2.30;;
15181;SDS011;7692;50.602;8.692;2024-03-02T03:27:38;2.30;;;2.30;;
15181;SDS011;7692;50.602;8.692;2024-03-02T03:30:10;2.30;;;2.30;;
15181;SDS011;7692;50.602;8.692;2024-03-02T03:32:38;2.40;;;2.40;;
15181;SDS011;7692;50.602;8.692;2024-03-02T03:35:06;2.30;;;2.30;;
15181;SDS011;7692;50.602;8.692;2024-03-02T03:37:35;2.50;;;2.50;;
15181;SDS011;7692;50.602;8.692;2024-03-02T03:40:03;2.30;;;2.30;;
15181;SDS011;7692;50.602;8.692;2024-03-02T03:42:36;2.30;;;2.30;;
15181;SDS011;7692;50.602;8.692;2024-03-02T03:45:05;2.23;;;2.23;;
15181;SDS011;7692;50.602;8.692;2024-03-02T03:47:35;2.30;;;2.30;;
15181;SDS011;7692;50.602;8.692;2024-03-02T03:50:03;2.50;;;2.50;;
15181;SDS011;7692;50.602;8.692;2024-03-02T03:52:33;2.33;;;2.33;;
15181;SDS011;7692;50.602;8.692;2024-03-02T03:55:02;2.30;;;2.30;;
15181;SDS011;7692;50.602;8.692;2024-03-02T03:57:31;2.30;;;2.30;;
15181;SDS011;7692;50.602;8.692;2024-03-02T04:00:00;2.40;;;2.40;;
15181;SDS011;7692;50.602;8.692;2024-03-02T04:02:38;2.40;;;2.40;;
15181;SDS011;7692;50.602;8.692;2024-03-02T04:05:07;2.40;;;2.40;;
15181;SDS011;7692;50.602;8.692;2024-03-02T04:07:38;2.40;;;2.40;;
15181;SDS011;7692;50.602;8.692;2024-03-02T04:10:07;2.40;;;2.40;;
15181;SDS011;7692;50.602;8.692;2024-03-02T04:12:36;2.40;;;2.40;;
15181;SDS011;7692;50.602;8.692;2024-03-02T04:15:05;2.40;;;2.40;;
15181;SDS011;7692;50.602;8.692;2024-03-02T04:17:33;2.30;;;2.30;;
15181;SDS011;7692;50.602;8.692;2024-03-02T04:20:04;2.43;;;2.43;;
15181;SDS011;7692;50.602;8.692;2024-03-02T04:22:33;2.30;;;2.30;;
15181;SDS011;7692;50.602;8.692;2024-03-02T04:25:02;2.40;;;2.40;;
15181;SDS011;7692;50.602;8.692;2024-03-02T04:27:31;2.20;;;2.20;;
15181;SDS011;7692;50.602;8.692;2024-03-02T04:30:00;2.30;;;2.30;;
15181;SDS011;7692;50.602;8.692;2024-03-02T04:32:28;2.40;;;2.40;;
15181;SDS011;7692;50.602;8.692;2024-03-02T04:34:56;2.40;;;2.40;;
15181;SDS011;7692;50.602;8.692;2024-03-02T04:37:25;2.30;;;2.30;;
15181;SDS011;7692;50.602;8.692;2024-03-02T04:39:53;2.40;;;2.40;;
15181;SDS011;7692;50.602;8.692;2024-03-02T04:42:21;2.30;;;2.30;;
15181;SDS011;7692;50.602;8.692;2024-03-02T04:44:49;2.50;;;2.50;;
15181;SDS011;7692;50.602;8.692;2024-03-02T04:47:17;2.40;;;2.40;;
15181;SDS011;7692;50.602;8.692;2024-03-02T04:49:45;2.50;;;2.50;;
15181;SDS011;7692;50.602;8.692;2024-03-02T04:52:13;2.30;;;2.30;;
15181;SDS011;7692;50.602;8.692;2024-03-02T04:54:42;2.30;;;2.30;;
15181;SDS011;7692;50.602;8.692;2024-03-02T04:57:25;2.30;;;2.30;;
15181;SDS011;7692;50.602;8.692;2024-03-02T04:59:53;2.30;;;2.30;;
15181;SDS011;7692;50.602;8.692;2024-03-02T05:02:21;2.40;;;2.40;;
15181;SDS011;7692;50.602;8.692;2024-03-02T05:04:49;2.30;;;2.30;;
15181;SDS011;7692;50.602;8.692;2024-03-02T05:07:17;2.33;;;2.33;;
15181;SDS011;7692;50.602;8.692;2024-03-02T05:09:46;2.40;;;2.40;;
15181;SDS011;7692;50.602;8.692;2024-03-02T05:12:14;2.47;;;2.47;;
15181;SDS011;7692;50.602;8.692;2024-03-02T05:15:07;2.60;;;2.60;;
15181;SDS011;7692;50.602;8.692;2024-03-02T05:17:36;2.50;;;2.50;;
15181;SDS011;7692;50.602;8.692;2024-03-02T05:20:05;2.30;;;2.30;;
15181;SDS011;7692;50.602;8.692;2024-03-02T05:22:35;2.40;;;2.40;;
15181;SDS011;7692;50.602;8.692;2024-03-02T05:25:04;2.40;;;2.40;;
15181;SDS011;7692;50.602;8.692;2024-03-02T05:27:33;2.40;;;2.40;;
15181;SDS011;7692;50.602;8.692;2024-03-02T05:30:02;2.40;;;2.40;;
15181;SDS011;7692;50.602;8.692;2024-03-02T05:32:32;2.40;;;2.40;;
15181;SDS011;7692;50.602;8.692;2024-03-02T05:35:01;2.50;;;2.50;;
15181;SDS011;7692;50.602;8.692;2024-03-02T05:37:29;2.40;;;2.40;;
15181;SDS011;7692;50.602;8.692;2024-03-02T05:39:57;2.50;;;2.50;;
15181;SDS011;7692;50.602;8.692;2024-03-02T05:42:27;2.43;;;2.43;;
15181;SDS011;7692;50.602;8.692;2024-03-02T05:44:55;2.40;;;2.40;;
15181;SDS011;7692;50.602;8.692;2024-03-02T05:47:24;2.40;;;2.40;;
15181;SDS011;7692;50.602;8.692;2024-03-02T05:49:55;2.40;;;2.40;;
15181;SDS011;7692;50.602;8.692;2024-03-02T05:52:23;2.40;;;2.40;;
15181;SDS011;7692;50.602;8.692;2024-03-02T05:54:50;2.60;;;2.60;;
15181;SDS011;7692;50.602;8.692;2024-03-02T05:57:19;2.50;;;2.50;;
15181;SDS011;7692;50.602;8.692;2024-03-02T06:00:02;2.40;;;2.40;;
15181;SDS011;7692;50.602;8.692;2024-03-02T06:02:38;2.60;;;2.60;;
15181;SDS011;7692;50.602;8.692;2024-03-02T06:05:07;2.50;;;2.50;;
15181;SDS011;7692;50.602;8.692;2024-03-02T06:07:35;2.50;;;2.50;;
15181;SDS011;7692;50.602;8.692;2024-03-02T06:10:03;2.30;;;2.30;;
15181;SDS011;7692;50.602;8.692;2024-03-02T06:12:37;2.30;;;2.30;;
15181;SDS011;7692;50.602;8.692;2024-03-02T06:15:06;2.30;;;2.30;;
15181;SDS011;7692;50.602;8.692;2024-03-02T06:17:35;2.30;;;2.30;;
15181;SDS011;7692;50.602;8.692;2024-03-02T06:20:04;2.30;;;2.30;;
15181;SDS011;7692;50.602;8.692;2024-03-02T06:22:34;2.30;;;2.30;;
15181;SDS011;7692;50.602;8.692;2024-03-02T06:25:02;2.40;;;2.40;;
15181;SDS011;7692;50.602;8.692;2024-03-02T06:27:31;2.40;;;2.40;;
15181;SDS011;7692;50.602;8.692;2024-03-02T06:29:59;2.30;;;2.30;;
15181;SDS011;7692;50.602;8.692;2024-03-02T06:32:28;2.40;;;2.40;;
15181;SDS011;7692;50.602;8.692;2024-03-02T06:34:57;2.30;;;2.30;;
15181;SDS011;7692;50.602;8.692;2024-03-02T06:37:26;2.20;;;2.20;;
15181;SDS011;7692;50.602;8.692;2024-03-02T06:39:54;2.40;;;2.40;;
15181;SDS011;7692;50.602;8.692;2024-03-02T06:42:22;2.40;;;2.40;;
15181;SDS011;7692;50.602;8.692;2024-03-02T06:44:50;2.20;;;2.20;;
15181;SDS011;7692;50.602;8.692;2024-03-02T06:47:18;2.30;;;2.30;;
15181;SDS011;7692;50.602;8.692;2024-03-02T06:49:48;2.20;;;2.20;;
15181;SDS011;7692;50.602;8.692;2024-03-02T06:52:16;2.40;;;2.40;;
15181;SDS011;7692;50.602;8.692;2024-03-02T06:54:49;2.20;;;2.20;;
15181;SDS011;7692;50.602;8.692;2024-03-02T06:57:17;2.33;;;2.33;;
15181;SDS011;7692;50.602;8.692;2024-03-02T06:59:47;2.40;;;2.40;;
15181;SDS011;7692;50.602;8.692;2024-03-02T07:02:16;2.30;;;2.30;;
15181;SDS011;7692;50.602;8.692;2024-03-02T07:04:44;2.30;;;2.30;;
15181;SDS011;7692;50.602;8.692;2024-03-02T07:07:14;2.30;;;2.30;;
15181;SDS011;7692;50.602;8.692;2024-03-02T07:09:42;2.30;;;2.30;;
15181;SDS011;7692;50.602;8.692;2024-03-02T07:12:10;2.30;;;2.30;;
15181;SDS011;7692;50.602;8.692;2024-03-02T07:14:38;2.20;;;2.20;;
15181;SDS011;7692;50.602;8.692;2024-03-02T07:17:20;2.30;;;2.30;;
15181;SDS011;7692;50.602;8.692;2024-03-02T07:19:48;2.20;;;2.20;;
15181;SDS011;7692;50.602;8.692;2024-03-02T07:22:17;2.20;;;2.20;;
15181;SDS011;7692;50.602;8.692;2024-03-02T07:24:45;2.30;;;2.30;;
15181;SDS011;7692;50.602;8.692;2024-03-02T07:27:13;2.20;;;2.20;;
15181;SDS011;7692;50.602;8.692;2024-03-02T07:29:41;2.10;;;2.10;;
15181;SDS011;7692;50.602;8.692;2024-03-02T07:32:10;2.10;;;2.10;;
15181;SDS011;7692;50.602;8.692;2024-03-02T07:34:38;2.17;;;2.17;;
15181;SDS011;7692;50.602;8.692;2024-03-02T07:37:06;2.20;;;2.20;;
15181;SDS011;7692;50.602;8.692;2024-03-02T07:39:35;2.40;;;2.40;;
15181;SDS011;7692;50.602;8.692;2024-03-02T07:42:03;1.90;;;1.90;;
15181;SDS011;7692;50.602;8.692;2024-03-02T07:44:32;2.10;;;2.10;;
15181;SDS011;7692;50.602;8.692;2024-03-02T07:47:00;2.10;;;2.10;;
15181;SDS011;7692;50.602;8.692;2024-03-02T07:49:28;2.10;;;2.10;;
15181;SDS011;7692;50.602;8.692;2024-03-02T07:51:56;2.10;;;2.10;;
15181;SDS011;7692;50.602;8.692;2024-03-02T07:54:25;2.07;;;2.07;;
15181;SDS011;7692;50.602;8.692;2024-03-02T07:56:54;2.00;;;2.00;;
15181;SDS011;7692;50.602;8.692;2024-03-02T07:59:22;2.10;;;2.10;;
15181;SDS011;7692;50.602;8.692;2024-03-02T08:01:50;2.00;;;2.00;;
15181;SDS011;7692;50.602;8.692;2024-03-02T08:04:18;2.00;;;2.00;;
15181;SDS011;7692;50.602;8.692;2024-03-02T08:06:47;2.00;;;2.00;;
15181;SDS011;7692;50.602;8.692;2024-03-02T08:09:23;2.10;;;2.10;;
15181;SDS011;7692;50.602;8.692;2024-03-02T08:11:55;1.90;;;1.90;;
15181;SDS011;7692;50.602;8.692;2024-03-02T08:14:24;1.80;;;1.80;;
15181;SDS011;7692;50.602;8.692;2024-03-02T08:16:52;1.80;;;1.80;;
15181;SDS011;7692;50.602;8.692;2024-03-02T08:19:20;2.00;;;2.00;;
15181;SDS011;7692;50.602;8.692;2024-03-02T08:21:48;1.80;;;1.80;;
15181;SDS011;7692;50.602;8.692;2024-03-02T08:24:16;1.60;;;1.60;;
15181;SDS011;7692;50.602;8.692;2024-03-02T08:26:44;2.00;;;2.00;;
15181;SDS011;7692;50.602;8.692;2024-03-02T08:29:14;1.60;;;1.60;;
15181;SDS011;7692;50.602;8.692;2024-03-02T08:31:42;1.80;;;1.80;;
15181;SDS011;7692;50.602;8.692;2024-03-02T08:34:10;2.00;;;2.00;;
15181;SDS011;7692;50.602;8.692;2024-03-02T08:36:38;2.10;;;2.10;;
15181;SDS011;7692;50.602;8.692;2024-03-02T08:39:07;1.70;;;1.70;;
15181;SDS011;7692;50.602;8.692;2024-03-02T08:41:43;1.60;;;1.60;;
15181;SDS011;7692;50.602;8.692;2024-03-02T08:44:12;1.90;;;1.90;;
15181;SDS011;7692;50.602;8.692;2024-03-02T08:46:42;1.70;;;1.70;;
15181;SDS011;7692;50.602;8.692;2024-03-02T08:49:11;1.50;;;1.50;;
15181;SDS011;7692;50.602;8.692;2024-03-02T08:51:39;1.50;;;1.50;;
15181;SDS011;7692;50.602;8.692;2024-03-02T08:54:07;1.80;;;1.80;;
15181;SDS011;7692;50.602;8.692;2024-03-02T08:56:35;1.60;;;1.60;;
15181;SDS011;7692;50.602;8.692;2024-03-02T08:59:03;1.50;;;1.50;;
15181;SDS011;7692;50.602;8.692;2024-03-02T09:01:31;1.40;;;1.40;;
15181;SDS011;7692;50.602;8.692;2024-03-02T09:04:01;1.57;;;1.57;;
15181;SDS011;7692;50.602;8.692;2024-03-02T09:06:30;1.80;;;1.80;;
15181;SDS011;7692;50.602;8.692;2024-03-02T09:08:58;1.60;;;1.60;;
15181;SDS011;7692;50.602;8.692;2024-03-02T09:11:26;1.60;;;1.60;;
15181;SDS011;7692;50.602;8.692;2024-03-02T09:13:54;1.40;;;1.40;;
15181;SDS011;7692;50.602;8.692;2024-03-02T09:16:24;1.53;;;1.53;;
15181;SDS011;7692;50.602;8.692;2024-03-02T09:19:00;1.70;;;1.70;;
15181;SDS011;7692;50.602;8.692;2024-03-02T09:21:29;1.50;;;1.50;;
15181;SDS011;7692;50.602;8.692;2024-03-02T09:23:57;1.70;;;1.70;;
15181;SDS011;7692;50.602;8.692;2024-03-02T09:26:25;1.30;;;1.30;;
15181;SDS011;7692;50.602;8.692;2024-03-02T09:28:53;1.40;;;1.40;;
15181;SDS011;7692;50.602;8.692;2024-03-02T09:31:21;1.30;;;1.30;;
15181;SDS011;7692;50.602;8.692;2024-03-02T09:33:49;1.20;;;1.20;;
15181;SDS011;7692;50.602;8.692;2024-03-02T09:36:19;1.40;;;1.40;;
15181;SDS011;7692;50.602;8.692;2024-03-02T09:38:48;1.37;;;1.37;;
15181;SDS011;7692;50.602;8.692;2024-03-02T09:41:16;1.40;;;1.40;;
15181;SDS011;7692;50.602;8.692;2024-03-02T09:43:46;1.30;;;1.30;;
15181;SDS011;7692;50.602;8.692;2024-03-02T09:46:14;1.30;;;1.30;;
15181;SDS011;7692;50.602;8.692;2024-03-02T09:48:43;1.10;;;1.10;;
15181;SDS011;7692;50.602;8.692;2024-03-02T09:51:13;1.10;;;1.10;;
15181;SDS011;7692;50.602;8.692;2024-03-02T09:53:47;1.40;;;1.40;;
15181;SDS011;7692;50.602;8.692;2024-03-02T09:56:15;1.60;;;1.60;;
15181;SDS011;7692;50.602;8.692;2024-03-02T09:58:44;1.30;;;1.30;;
15181;SDS011;7692;50.602;8.692;2024-03-02T10:01:15;1.40;;;1.40;;
15181;SDS011;7692;50.602;8.692;2024-03-02T10:03:44;1.50;;;1.50;;
15181;SDS011;7692;50.602;8.692;2024-03-02T10:06:19;1.30;;;1.30;;
15181;SDS011;7692;50.602;8.692;2024-03-02T10:08:50;1.30;;;1.30;;
15181;SDS011;7692;50.602;8.692;2024-03-02T10:11:28;1.20;;;1.20;;
15181;SDS011;7692;50.602;8.692;2024-03-02T10:14:06;1.30;;;1.30;;
15181;SDS011;7692;50.602;8.692;2024-03-02T10:16:36;1.30;;;1.30;;
15181;SDS011;7692;50.602;8.692;2024-03-02T10:19:17;1.20;;;1.20;;
15181;SDS011;7692;50.602;8.692;2024-03-02T10:21:46;1.20;;;1.20;;
15181;SDS011;7692;50.602;8.692;2024-03-02T10:24:17;1.20;;;1.20;;
15181;SDS011;7692;50.602;8.692;2024-03-02T10:26:46;1.20;;;1.20;;
15181;SDS011;7692;50.602;8.692;2024-03-02T10:29:14;1.40;;;1.40;;
15181;SDS011;7692;50.602;8.692;2024-03-02T10:31:43;1.40;;;1.40;;
15181;SDS011;7692;50.602;8.692;2024-03-02T10:34:13;1.20;;;1.20;;
15181;SDS011;7692;50.602;8.692;2024-03-02T10:36:42;1.30;;;1.30;;
15181;SDS011;7692;50.602;8.692;2024-03-02T10:39:12;1.00;;;1.00;;
15181;SDS011;7692;50.602;8.692;2024-03-02T10:41:43;1.00;;;1.00;;
15181;SDS011;7692;50.602;8.692;2024-03-02T10:44:11;1.00;;;1.00;;
15181;SDS011;7692;50.602;8.692;2024-03-02T10:46:40;1.00;;;1.00;;
15181;SDS011;7692;50.602;8.692;2024-03-02T10:49:08;1.00;;;1.00;;
15181;SDS011;7692;50.602;8.692;2024-03-02T10:51:36;1.00;;;1.00;;
15181;SDS011;7692;50.602;8.692;2024-03-02T10:54:05;0.90;;;0.90;;
15181;SDS011;7692;50.602;8.692;2024-03-02T10:56:34;1.10;;;1.10;;
15181;SDS011;7692;50.602;8.692;2024-03-02T10:59:10;1.00;;;1.00;;
15181;SDS011;7692;50.602;8.692;2024-03-02T11:01:41;1.00;;;1.00;;
15181;SDS011;7692;50.602;8.692;2024-03-02T11:04:12;1.00;;;1.00;;
15181;SDS011;7692;50.602;8.692;2024-03-02T11:06:41;1.00;;;1.00;;
15181;SDS011;7692;50.602;8.692;2024-03-02T11:09:11;1.00;;;1.00;;
15181;SDS011;7692;50.602;8.692;2024-03-02T11:11:42;1.00;;;1.00;;
15181;SDS011;7692;50.602;8.692;2024-03-02T11:14:13;0.97;;;0.97;;
15181;SDS011;7692;50.602;8.692;2024-03-02T11:16:42;0.80;;;0.80;;
15181;SDS011;7692;50.602;8.692;2024-03-02T11:19:11;0.80;;;0.80;;
15181;SDS011;7692;50.602;8.692;2024-03-02T11:21:43;0.90;;;0.90;;
15181;SDS011;7692;50.602;8.692;2024-03-02T11:27:04;0.90;;;0.90;;
15181;SDS011;7692;50.602;8.692;2024-03-02T11:29:44;0.80;;;0.80;;
15181;SDS011;7692;50.602;8.692;2024-03-02T11:32:14;0.97;;;0.97;;
15181;SDS011;7692;50.602;8.692;2024-03-02T11:34:44;0.90;;;0.90;;
15181;SDS011;7692;50.602;8.692;2024-03-02T11:37:14;0.90;;;0.90;;
15181;SDS011;7692;50.602;8.692;2024-03-02T11:39:43;0.90;;;0.90;;
15181;SDS011;7692;50.602;8.692;2024-03-02T11:42:12;0.90;;;0.90;;
15181;SDS011;7692;50.602;8.692;2024-03-02T11:44:42;0.90;;;0.90;;
15181;SDS011;7692;50.602;8.692;2024-03-02T11:47:14;0.80;;;0.80;;
15181;SDS011;7692;50.602;8.692;2024-03-02T11:49:43;0.90;;;0.90;;
15181;SDS011;7692;50.602;8.692;2024-03-02T11:52:13;0.90;;;0.90;;
15181;SDS011;7692;50.602;8.692;2024-03-02T11:54:42;0.90;;;0.90;;
15181;SDS011;7692;50.602;8.692;2024-03-02T11:57:14;0.90;;;0.90;;
15181;SDS011;7692;50.602;8.692;2024-03-02T11:59:44;0.90;;;0.90;;
15181;SDS011;7692;50.602;8.692;2024-03-02T12:02:14;0.90;;;0.90;;
15181;SDS011;7692;50.602;8.692;2024-03-02T12:04:44;0.90;;;0.90;;
15181;SDS011;7692;50.602;8.692;2024-03-02T12:07:18;1.00;;;1.00;;
15181;SDS011;7692;50.602;8.692;2024-03-02T12:09:48;0.90;;;0.90;;
15181;SDS011;7692;50.602;8.692;2024-03-02T12:12:26;0.90;;;0.90;;
15181;SDS011;7692;50.602;8.692;2024-03-02T12:14:56;0.90;;;0.90;;
15181;SDS011;7692;50.602;8.692;2024-03-02T12:17:25;1.00;;;1.00;;
15181;SDS011;7692;50.602;8.692;2024-03-02T12:19:54;0.97;;;0.97;;
15181;SDS011;7692;50.602;8.692;2024-03-02T12:22:22;0.90;;;0.90;;
15181;SDS011;7692;50.602;8.692;2024-03-02T12:24:50;1.00;;;1.00;;
15181;SDS011;7692;50.602;8.692;2024-03-02T12:27:18;0.90;;;0.90;;
15181;SDS011;7692;50.602;8.692;2024-03-02T12:29:47;0.90;;;0.90;;
15181;SDS011;7692;50.602;8.692;2024-03-02T12:32:17;1.00;;;1.00;;
15181;SDS011;7692;50.602;8.692;2024-03-02T12:34:46;0.90;;;0.90;;
15181;SDS011;7692;50.602;8.692;2024-03-02T12:37:14;1.00;;;1.00;;
15181;SDS011;7692;50.602;8.692;2024-03-02T12:39:44;1.00;;;1.00;;
15181;SDS011;7692;50.602;8.692;2024-03-02T12:42:13;0.90;;;0.90;;
15181;SDS011;7692;50.602;8.692;2024-03-02T12:44:41;0.80;;;0.80;;
15181;SDS011;7692;50.602;8.692;2024-03-02T12:47:09;0.83;;;0.83;;
15181;SDS011;7692;50.602;8.692;2024-03-02T12:49:40;0.80;;;0.80;;
15181;SDS011;7692;50.602;8.692;2024-03-02T12:52:09;0.70;;;0.70;;
15181;SDS011;7692;50.602;8.692;2024-03-02T12:54:39;0.80;;;0.80;;
15181;SDS011;7692;50.602;8.692;2024-03-02T12:57:07;0.80;;;0.80;;
15181;SDS011;7692;50.602;8.692;2024-03-02T12:59:35;0.80;;;0.80;;
15181;SDS011;7692;50.602;8.692;2024-03-02T13:02:03;0.70;;;0.70;;
15181;SDS011;7692;50.602;8.692;2024-03-02T13:04:33;0.70;;;0.70;;
15181;SDS011;7692;50.602;8.692;2024-03-02T13:07:02;0.70;;;0.70;;
15181;SDS011;7692;50.602;8.692;2024-03-02T13:09:31;0.70;;;0.70;;
15181;SDS011;7692;50.602;8.692;2024-03-02T13:12:00;0.73;;;0.73;;
15181;SDS011;7692;50.602;8.692;2024-03-02T13:14:31;0.80;;;0.80;;
15181;SDS011;7692;50.602;8.692;2024-03-02T13:17:00;0.80;;;0.80;;
15181;SDS011;7692;50.602;8.692;2024-03-02T13:19:30;0.70;;;0.70;;
15181;SDS011;7692;50.602;8.692;2024-03-02T13:21:58;0.80;;;0.80;;
15181;SDS011;7692;50.602;8.692;2024-03-02T13:24:29;0.70;;;0.70;;
15181;SDS011;7692;50.602;8.692;2024-03-02T13:26:58;0.75;;;0.75;;
15181;SDS011;7692;50.602;8.692;2024-03-02T13:29:26;0.80;;;0.80;;
15181;SDS011;7692;50.602;8.692;2024-03-02T13:31:54;0.70;;;0.70;;
15181;SDS011;7692;50.602;8.692;2024-03-02T13:34:24;0.70;;;0.70;;
15181;SDS011;7692;50.602;8.692;2024-03-02T13:36:51;0.70;;;0.70;;
15181;SDS011;7692;50.602;8.692;2024-03-02T13:39:20;0.70;;;0.70;;
15181;SDS011;7692;50.602;8.692;2024-03-02T13:41:49;0.70;;;0.70;;
15181;SDS011;7692;50.602;8.692;2024-03-02T13:44:23;0.70;;;0.70;;
15181;SDS011;7692;50.602;8.692;2024-03-02T13:46:51;0.60;;;0.60;;
15181;SDS011;7692;50.602;8.692;2024-03-02T13:49:20;0.60;;;0.60;;
15181;SDS011;7692;50.602;8.692;2024-03-02T13:51:49;0.60;;;0.60;;
15181;SDS011;7692;50.602;8.692;2024-03-02T13:54:17;0.60;;;0.60;;
15181;SDS011;7692;50.602;8.692;2024-03-02T13:56:45;0.60;;;0.60;;
15181;SDS011;7692;50.602;8.692;2024-03-02T13:59:15;0.60;;;0.60;;
15181;SDS011;7692;50.602;8.692;2024-03-02T14:01:44;0.60;;;0.60;;
15181;SDS011;7692;50.602;8.692;2024-03-02T14:04:12;0.60;;;0.60;;
15181;SDS011;7692;50.602;8.692;2024-03-02T14:06:40;0.55;;;0.55;;
15181;SDS011;7692;50.602;8.692;2024-03-02T14:09:10;0.60;;;0.60;;
15181;SDS011;7692;50.602;8.692;2024-03-02T14:11:38;0.60;;;0.60;;
15181;SDS011;7692;50.602;8.692;2024-03-02T14:14:05;0.60;;;0.60;;
15181;SDS011;7692;50.602;8.692;2024-03-02T14:16:35;0.63;;;0.63;;
15181;SDS011;7692;50.602;8.692;2024-03-02T14:19:03;0.70;;;0.70;;
15181;SDS011;7692;50.602;8.692;2024-03-02T14:21:31;0.70;;;0.70;;
15181;SDS011;7692;50.602;8.692;2024-03-02T14:24:02;0.60;;;0.60;;
15181;SDS011;7692;50.602;8.692;2024-03-02T14:26:30;0.63;;;0.63;;
15181;SDS011;7692;50.602;8.692;2024-03-02T14:28:59;0.60;;;0.60;;
15181;SDS011;7692;50.602;8.692;2024-03-02T14:31:28;0.70;;;0.70;;
15181;SDS011;7692;50.602;8.692;2024-03-02T14:33:58;0.70;;;0.70;;
15181;SDS011;7692;50.602;8.692;2024-03-02T14:36:27;0.60;;;0.60;;
15181;SDS011;7692;50.602;8.692;2024-03-02T14:38:56;0.70;;;0.70;;
15181;SDS011;7692;50.602;8.692;2024-03-02T14:41:24;0.70;;;0.70;;
15181;SDS011;7692;50.602;8.692;2024-03-02T14:43:52;0.70;;;0.70;;
15181;SDS011;7692;50.602;8.692;2024-03-02T14:46:19;0.70;;;0.70;;
15181;SDS011;7692;50.602;8.692;2024-03-02T14:48:48;0.60;;;0.60;;
15181;SDS011;7692;50.602;8.692;2024-03-02T14:51:17;0.60;;;0.60;;
15181;SDS011;7692;50.602;8.692;2024-03-02T14:53:45;0.70;;;0.70;;
15181;SDS011;7692;50.602;8.692;2024-03-02T14:56:13;0.70;;;0.70;;
15181;SDS011;7692;50.602;8.692;2024-03-02T14:58:41;0.70;;;0.70;;
15181;SDS011;7692;50.602;8.692;2024-03-02T15:01:11;0.80;;;0.80;;
15181;SDS011;7692;50.602;8.692;2024-03-02T15:03:40;0.70;;;0.70;;
15181;SDS011;7692;50.602;8.692;2024-03-02T15:06:09;0.70;;;0.70;;
15181;SDS011;7692;50.602;8.692;2024-03-02T15:08:39;0.80;;;0.80;;
15181;SDS011;7692;50.602;8.692;2024-03-02T15:11:08;0.80;;;0.80;;
15181;SDS011;7692;50.602;8.692;2024-03-02T15:13:37;0.90;;;0.90;;
15181;SDS011;7692;50.602;8.692;2024-03-02T15:16:05;0.80;;;0.80;;